createdAt,value
2023-01-22T00:04:21.347Z,-1.45
2023-01-22T00:09:28.538Z,-1.51
2023-01-22T00:14:30.590Z,-1.49
2023-01-22T00:19:37.923Z,-1.42
2023-01-22T00:24:39.483Z,-1.43
2023-01-22T00:29:41.486Z,-1.45
2023-01-22T00:34:50.184Z,-1.48
2023-01-22T00:39:55.217Z,-1.46
2023-01-22T00:44:59.221Z,-1.35
2023-01-22T00:50:01.934Z,-1.19
2023-01-22T00:55:07.624Z,-1.04
2023-01-22T01:00:10.179Z,-0.95
2023-01-22T01:05:14.754Z,-0.90
2023-01-22T01:10:19.538Z,-0.89
2023-01-22T01:15:29.367Z,-0.81
2023-01-22T01:20:37.399Z,-0.71
2023-01-22T01:25:41.623Z,-0.61
2023-01-22T01:30:44.347Z,-0.52
2023-01-22T01:35:48.557Z,-0.53
2023-01-22T01:40:53.160Z,-0.56
2023-01-22T01:46:00.108Z,-0.53
2023-01-22T01:51:37.082Z,-0.46
2023-01-22T01:56:45.972Z,-0.35
2023-01-22T02:01:52.377Z,-0.28
2023-01-22T02:06:54.472Z,-0.27
2023-01-22T02:11:59.346Z,-0.24
2023-01-22T02:17:14.120Z,-0.25
2023-01-22T02:22:27.847Z,-0.25
2023-01-22T02:27:29.683Z,-0.20
2023-01-22T02:32:34.315Z,-0.16
2023-01-22T02:38:19.164Z,-0.12
2023-01-22T02:43:44.397Z,-0.01
2023-01-22T02:48:52.753Z,0.04
2023-01-22T02:54:01.394Z,0.03
2023-01-22T02:59:04.373Z,0.01
2023-01-22T03:04:11.856Z,-0.04
2023-01-22T03:09:19.655Z,-0.12
2023-01-22T03:14:43.892Z,-0.17
2023-01-22T03:20:04.883Z,-0.12
2023-01-22T03:25:07.430Z,-0.05
2023-01-22T03:30:18.031Z,-0.07
2023-01-22T03:35:27.754Z,-0.09
2023-01-22T03:40:46.985Z,-0.08
2023-01-22T03:45:49.398Z,-0.02
2023-01-22T03:51:00.025Z,0.05
2023-01-22T03:56:12.377Z,0.04
2023-01-22T04:01:26.165Z,0.02
2023-01-22T04:06:37.503Z,-0.01
2023-01-22T04:11:39.703Z,0.03
2023-01-22T04:16:49.921Z,0.09
2023-01-22T04:22:20.211Z,0.14
2023-01-22T04:27:24.453Z,0.15
2023-01-22T04:32:28.571Z,0.12
2023-01-22T04:37:38.119Z,0.08
2023-01-22T04:43:07.670Z,0.05
2023-01-22T04:48:31.569Z,0.07
2023-01-22T04:54:01.274Z,0.10
2023-01-22T04:59:27.634Z,0.11
2023-01-22T05:04:46.754Z,0.05
2023-01-22T05:09:59.040Z,0.03
2023-01-22T05:15:07.387Z,0.05
2023-01-22T05:20:25.260Z,0.10
2023-01-22T05:25:38.893Z,0.11
2023-01-22T05:30:48.056Z,0.08
2023-01-22T05:36:15.207Z,0.03
2023-01-22T05:41:28.788Z,0.04
2023-01-22T05:46:40.510Z,0.06
2023-01-22T05:52:29.713Z,0.03
2023-01-22T05:58:27.129Z,0.00
2023-01-22T06:03:31.704Z,-0.02
2023-01-22T06:08:39.802Z,-0.04
2023-01-22T06:14:12.285Z,-0.00
2023-01-22T06:19:29.392Z,0.05
2023-01-22T06:24:37.171Z,0.04
2023-01-22T06:29:44.757Z,0.05
2023-01-22T06:34:57.618Z,0.05
2023-01-22T06:40:02.045Z,0.02
2023-01-22T06:45:17.193Z,0.03
2023-01-22T06:50:58.682Z,0.07
2023-01-22T06:56:04.539Z,0.12
2023-01-22T07:01:12.635Z,0.14
2023-01-22T07:06:24.344Z,0.13
2023-01-22T07:11:39.155Z,0.17
2023-01-22T07:17:01.123Z,0.24
2023-01-22T07:22:09.451Z,0.28
2023-01-22T07:27:12.025Z,0.28
2023-01-22T07:32:19.293Z,0.25
2023-01-22T07:38:01.557Z,0.31
2023-01-22T07:43:18.447Z,0.37
2023-01-22T07:48:45.785Z,0.43
2023-01-22T07:53:50.567Z,0.45
2023-01-22T07:59:00.810Z,0.46
2023-01-22T08:04:10.078Z,0.51
2023-01-22T08:09:54.660Z,0.55
2023-01-22T08:16:05.745Z,0.66
2023-01-22T08:21:26.102Z,0.72
2023-01-22T08:27:52.630Z,0.78
2023-01-22T08:33:07.196Z,0.88
2023-01-22T08:38:26.879Z,0.94
2023-01-22T08:44:21.507Z,0.99
2023-01-22T08:49:53.563Z,1.07
2023-01-22T08:55:39.313Z,1.17
2023-01-22T09:01:13.548Z,1.25
2023-01-22T09:07:14.449Z,1.25
2023-01-22T09:12:36.152Z,1.30
2023-01-22T09:30:25.924Z,1.54
2023-01-22T09:35:32.988Z,1.53
2023-01-22T09:40:50.975Z,1.53
2023-01-22T09:46:44.592Z,1.57
2023-01-22T09:52:05.391Z,1.55
2023-01-22T09:57:30.698Z,1.52
2023-01-22T10:03:10.676Z,1.52
2023-01-22T10:08:41.947Z,1.63
2023-01-22T10:14:11.408Z,1.65
2023-01-22T10:19:47.217Z,1.64
2023-01-22T10:24:53.855Z,1.59
2023-01-22T10:30:18.543Z,1.60
2023-01-22T10:35:25.241Z,1.71
2023-01-22T10:41:04.070Z,1.81
2023-01-22T10:46:26.374Z,1.80
2023-01-22T10:51:38.356Z,1.76
2023-01-22T10:57:45.734Z,1.75
2023-01-22T11:02:57.371Z,1.81
2023-01-22T11:08:43.901Z,1.89
2023-01-22T11:14:01.547Z,1.96
2023-01-22T11:19:46.181Z,1.97
2023-01-22T11:24:53.991Z,1.97
2023-01-22T11:30:27.964Z,1.96
2023-01-22T11:36:17.716Z,2.06
2023-01-22T11:42:00.152Z,2.10
2023-01-22T11:48:27.265Z,2.07
2023-01-22T11:54:52.266Z,2.06
2023-01-22T12:00:28.932Z,1.96
2023-01-22T12:06:22.383Z,1.93
2023-01-22T12:12:52.396Z,1.94
2023-01-22T12:18:39.660Z,1.96
2023-01-22T12:24:19.611Z,1.91
2023-01-22T12:29:37.276Z,1.83
2023-01-22T12:35:11.496Z,1.80
2023-01-22T12:41:23.327Z,1.78
2023-01-22T12:47:25.217Z,1.78
2023-01-22T12:54:16.243Z,1.80
2023-01-22T13:00:11.826Z,1.78
2023-01-22T13:06:24.495Z,1.74
2023-01-22T13:11:37.598Z,1.76
2023-01-22T13:16:55.871Z,1.75
2023-01-22T13:22:00.339Z,1.75
2023-01-22T13:27:25.588Z,1.76
2023-01-22T13:32:40.351Z,1.71
2023-01-22T13:37:56.180Z,1.66
2023-01-22T13:43:48.332Z,1.71
2023-01-22T13:49:27.577Z,1.71
2023-01-22T13:54:36.847Z,1.69
2023-01-22T13:59:59.013Z,1.67
2023-01-22T14:05:24.501Z,1.63
2023-01-22T14:10:27.531Z,1.61
2023-01-22T14:15:39.898Z,1.63
2023-01-22T14:20:44.833Z,1.71
2023-01-22T14:26:13.671Z,1.78
2023-01-22T14:31:23.992Z,1.80
2023-01-22T14:36:37.996Z,1.75
2023-01-22T14:41:40.751Z,1.67
2023-01-22T14:46:58.369Z,1.65
2023-01-22T14:52:27.725Z,1.68
2023-01-22T14:57:30.030Z,1.62
2023-01-22T15:03:00.124Z,1.52
2023-01-22T15:08:20.444Z,1.44
2023-01-22T15:13:33.830Z,1.40
2023-01-22T15:18:46.619Z,1.41
2023-01-22T15:24:50.834Z,1.45
2023-01-22T15:30:37.938Z,1.47
2023-01-22T15:35:56.044Z,1.50
2023-01-22T15:41:19.956Z,1.48
2023-01-22T15:46:46.359Z,1.43
2023-01-22T15:52:01.407Z,1.44
2023-01-22T15:57:06.895Z,1.48
2023-01-22T16:02:43.744Z,1.54
2023-01-22T16:07:54.378Z,1.54
2023-01-22T16:12:59.594Z,1.53
2023-01-22T16:18:07.761Z,1.52
2023-01-22T16:23:10.597Z,1.47
2023-01-22T16:28:25.634Z,1.48
2023-01-22T16:33:44.247Z,1.56
2023-01-22T16:38:55.217Z,1.53
2023-01-22T16:44:09.522Z,1.50
2023-01-22T16:50:08.756Z,1.48
2023-01-22T16:55:39.307Z,1.51
2023-01-22T17:01:41.392Z,1.57
2023-01-22T17:06:57.103Z,1.59
2023-01-22T17:12:21.307Z,1.58
2023-01-22T17:17:32.830Z,1.51
2023-01-22T17:22:44.238Z,1.48
2023-01-22T17:28:18.971Z,1.50
2023-01-22T17:33:41.419Z,1.56
2023-01-22T17:38:54.264Z,1.59
2023-01-22T17:44:09.375Z,1.63
2023-01-22T17:49:23.573Z,1.69
2023-01-22T17:54:33.663Z,1.69
2023-01-22T18:00:09.531Z,1.71
2023-01-22T18:05:35.355Z,1.68
2023-01-22T18:10:43.793Z,1.61
2023-01-22T18:16:01.927Z,1.58
2023-01-22T18:21:06.649Z,1.61
2023-01-22T18:26:22.106Z,1.62
2023-01-22T18:31:29.549Z,1.63
2023-01-22T18:36:36.191Z,1.68
2023-01-22T18:41:51.077Z,1.64
2023-01-22T18:47:53.363Z,1.59
2023-01-22T18:53:34.849Z,1.59
2023-01-22T18:58:40.718Z,1.69
2023-01-22T19:04:29.418Z,1.79
2023-01-22T19:10:07.290Z,1.80
2023-01-22T19:15:11.893Z,1.76
2023-01-22T19:20:17.155Z,1.74
2023-01-22T19:25:19.838Z,1.75
2023-01-22T19:30:32.405Z,1.77
2023-01-22T19:35:45.331Z,1.85
2023-01-22T19:40:47.745Z,1.90
2023-01-22T19:45:55.106Z,1.90
2023-01-22T19:51:44.637Z,1.89
2023-01-22T19:56:53.017Z,1.88
2023-01-22T20:02:29.511Z,1.93
2023-01-22T20:08:02.003Z,1.99
2023-01-22T20:13:10.680Z,1.96
2023-01-22T20:18:13.225Z,1.96
2023-01-22T20:23:43.545Z,1.95
2023-01-22T20:29:00.788Z,1.95
2023-01-22T20:34:05.916Z,1.97
2023-01-22T20:39:38.411Z,1.99
2023-01-22T20:44:45.699Z,1.94
2023-01-22T20:49:51.896Z,1.88
2023-01-22T20:55:27.766Z,1.89
2023-01-22T21:00:32.873Z,1.95
2023-01-22T21:06:14.277Z,2.02
2023-01-22T21:11:32.265Z,1.99
2023-01-22T21:16:43.898Z,1.94
2023-01-22T21:21:49.258Z,1.88
2023-01-22T21:27:31.675Z,1.82
2023-01-22T21:32:36.027Z,1.87
2023-01-22T21:37:37.878Z,1.87
2023-01-22T21:43:04.860Z,1.82
2023-01-22T21:48:19.840Z,1.84
2023-01-22T21:53:21.798Z,1.93
2023-01-22T21:58:43.395Z,1.93
2023-01-22T22:03:45.117Z,1.84
2023-01-22T22:08:59.903Z,1.81
2023-01-22T22:14:24.227Z,1.89
2023-01-22T22:19:41.524Z,1.92
2023-01-22T22:24:48.248Z,1.84
2023-01-22T22:29:58.470Z,1.92
2023-01-22T22:35:25.632Z,2.03
2023-01-22T22:40:38.023Z,2.04
2023-01-22T22:45:40.281Z,2.02
2023-01-22T22:50:53.618Z,2.00
2023-01-22T22:56:05.649Z,1.99
2023-01-22T23:01:23.672Z,2.02
2023-01-22T23:06:41.353Z,2.04
2023-01-22T23:12:36.323Z,2.01
2023-01-22T23:17:41.192Z,1.98
2023-01-22T23:23:42.995Z,1.98
2023-01-22T23:29:20.759Z,1.87
2023-01-22T23:34:33.905Z,1.88
2023-01-22T23:39:52.947Z,1.95
2023-01-22T23:44:58.114Z,1.96
2023-01-22T23:50:17.068Z,1.96
2023-01-22T23:55:32.723Z,1.94
